sensor_id;sensor_type;location;lat;lon;timestamp;temperature;humidity
13572;DHT22;6857;53.484;10.216;2022-11-13T00:00:23;6.50;99.90
13572;DHT22;6857;53.484;10.216;2022-11-13T00:02:49;6.40;99.90
13572;DHT22;6857;53.484;10.216;2022-11-13T00:05:14;6.50;99.90
13572;DHT22;6857;53.484;10.216;2022-11-13T00:07:40;6.50;99.90
13572;DHT22;6857;53.484;10.216;2022-11-13T00:10:06;6.40;99.90
13572;DHT22;6857;53.484;10.216;2022-11-13T00:12:32;6.60;99.90
13572;DHT22;6857;53.484;10.216;2022-11-13T00:14:57;6.40;99.90
13572;DHT22;6857;53.484;10.216;2022-11-13T00:17:23;6.40;99.90
13572;DHT22;6857;53.484;10.216;2022-11-13T00:19:48;6.40;99.90
13572;DHT22;6857;53.484;10.216;2022-11-13T00:22:14;6.40;99.90
13572;DHT22;6857;53.484;10.216;2022-11-13T00:24:39;6.30;99.90
13572;DHT22;6857;53.484;10.216;2022-11-13T00:27:05;6.30;99.90
13572;DHT22;6857;53.484;10.216;2022-11-13T00:29:31;6.30;99.90
13572;DHT22;6857;53.484;10.216;2022-11-13T00:31:56;6.30;99.90
13572;DHT22;6857;53.484;10.216;2022-11-13T00:34:22;6.30;99.90
13572;DHT22;6857;53.484;10.216;2022-11-13T00:36:48;6.40;99.90
13572;DHT22;6857;53.484;10.216;2022-11-13T00:39:13;6.20;99.90
13572;DHT22;6857;53.484;10.216;2022-11-13T00:41:39;6.20;99.90
13572;DHT22;6857;53.484;10.216;2022-11-13T00:44:05;6.20;99.90
13572;DHT22;6857;53.484;10.216;2022-11-13T00:46:30;6.10;99.90
13572;DHT22;6857;53.484;10.216;2022-11-13T00:48:56;6.20;99.90
13572;DHT22;6857;53.484;10.216;2022-11-13T00:51:22;6.20;99.90
13572;DHT22;6857;53.484;10.216;2022-11-13T00:53:47;6.20;99.90
13572;DHT22;6857;53.484;10.216;2022-11-13T00:56:13;6.20;99.90
13572;DHT22;6857;53.484;10.216;2022-11-13T00:58:38;6.20;99.90
13572;DHT22;6857;53.484;10.216;2022-11-13T01:01:09;6.20;99.90
13572;DHT22;6857;53.484;10.216;2022-11-13T01:03:35;6.60;99.90
13572;DHT22;6857;53.484;10.216;2022-11-13T01:06:11;6.30;99.90
13572;DHT22;6857;53.484;10.216;2022-11-13T01:08:37;6.30;99.90
13572;DHT22;6857;53.484;10.216;2022-11-13T01:11:11;6.30;99.90
13572;DHT22;6857;53.484;10.216;2022-11-13T01:13:38;6.40;99.90
13572;DHT22;6857;53.484;10.216;2022-11-13T01:16:06;6.40;99.90
13572;DHT22;6857;53.484;10.216;2022-11-13T01:18:32;6.30;99.90
13572;DHT22;6857;53.484;10.216;2022-11-13T01:21:06;6.30;99.90
13572;DHT22;6857;53.484;10.216;2022-11-13T01:23:32;6.20;99.90
13572;DHT22;6857;53.484;10.216;2022-11-13T01:26:25;6.30;99.90
13572;DHT22;6857;53.484;10.216;2022-11-13T01:28:52;6.40;99.90
13572;DHT22;6857;53.484;10.216;2022-11-13T01:31:21;6.50;99.90
13572;DHT22;6857;53.484;10.216;2022-11-13T01:33:47;6.50;99.90
13572;DHT22;6857;53.484;10.216;2022-11-13T01:36:22;6.70;99.90
13572;DHT22;6857;53.484;10.216;2022-11-13T01:38:48;6.80;99.90
13572;DHT22;6857;53.484;10.216;2022-11-13T01:41:24;6.80;99.90
13572;DHT22;6857;53.484;10.216;2022-11-13T01:43:50;6.80;99.90
13572;DHT22;6857;53.484;10.216;2022-11-13T01:48:49;6.80;99.90
13572;DHT22;6857;53.484;10.216;2022-11-13T01:51:21;6.80;99.90
13572;DHT22;6857;53.484;10.216;2022-11-13T01:53:48;6.80;99.90
13572;DHT22;6857;53.484;10.216;2022-11-13T01:56:15;6.80;99.90
13572;DHT22;6857;53.484;10.216;2022-11-13T01:58:45;6.80;99.90
13572;DHT22;6857;53.484;10.216;2022-11-13T02:01:11;6.80;99.90
13572;DHT22;6857;53.484;10.216;2022-11-13T02:03:37;6.80;99.90
13572;DHT22;6857;53.484;10.216;2022-11-13T02:06:02;6.80;99.90
13572;DHT22;6857;53.484;10.216;2022-11-13T02:08:28;6.70;99.90
13572;DHT22;6857;53.484;10.216;2022-11-13T02:10:54;6.70;99.90
13572;DHT22;6857;53.484;10.216;2022-11-13T02:13:20;6.60;99.90
13572;DHT22;6857;53.484;10.216;2022-11-13T02:15:47;6.60;99.90
13572;DHT22;6857;53.484;10.216;2022-11-13T02:18:15;6.60;99.90
13572;DHT22;6857;53.484;10.216;2022-11-13T02:20:47;6.60;99.90
13572;DHT22;6857;53.484;10.216;2022-11-13T02:23:47;6.60;99.90
13572;DHT22;6857;53.484;10.216;2022-11-13T02:26:10;6.50;99.90
13572;DHT22;6857;53.484;10.216;2022-11-13T02:28:36;6.50;99.90
13572;DHT22;6857;53.484;10.216;2022-11-13T02:31:10;6.40;99.90
13572;DHT22;6857;53.484;10.216;2022-11-13T02:33:36;6.30;99.90
13572;DHT22;6857;53.484;10.216;2022-11-13T02:36:02;6.30;99.90
13572;DHT22;6857;53.484;10.216;2022-11-13T02:38:30;6.30;99.90
13572;DHT22;6857;53.484;10.216;2022-11-13T02:40:56;6.10;99.90
13572;DHT22;6857;53.484;10.216;2022-11-13T02:43:22;6.20;99.90
13572;DHT22;6857;53.484;10.216;2022-11-13T02:45:47;6.20;99.90
13572;DHT22;6857;53.484;10.216;2022-11-13T02:48:13;6.10;99.90
13572;DHT22;6857;53.484;10.216;2022-11-13T02:50:38;6.00;99.90
13572;DHT22;6857;53.484;10.216;2022-11-13T02:53:05;6.00;99.90
13572;DHT22;6857;53.484;10.216;2022-11-13T02:55:31;5.90;99.90
13572;DHT22;6857;53.484;10.216;2022-11-13T02:57:57;5.90;99.90
13572;DHT22;6857;53.484;10.216;2022-11-13T03:00:22;6.00;99.90
13572;DHT22;6857;53.484;10.216;2022-11-13T03:02:48;5.90;99.90
13572;DHT22;6857;53.484;10.216;2022-11-13T03:05:14;5.90;99.90
13572;DHT22;6857;53.484;10.216;2022-11-13T03:07:40;6.00;99.90
13572;DHT22;6857;53.484;10.216;2022-11-13T03:10:07;6.00;99.90
13572;DHT22;6857;53.484;10.216;2022-11-13T03:12:33;6.00;99.90
13572;DHT22;6857;53.484;10.216;2022-11-13T03:14:59;6.00;99.90
13572;DHT22;6857;53.484;10.216;2022-11-13T03:17:25;6.10;99.90
13572;DHT22;6857;53.484;10.216;2022-11-13T03:19:50;6.10;99.90
13572;DHT22;6857;53.484;10.216;2022-11-13T03:22:16;6.10;99.90
13572;DHT22;6857;53.484;10.216;2022-11-13T03:24:41;6.00;99.90
13572;DHT22;6857;53.484;10.216;2022-11-13T03:27:07;6.00;99.90
13572;DHT22;6857;53.484;10.216;2022-11-13T03:29:32;6.00;99.90
13572;DHT22;6857;53.484;10.216;2022-11-13T03:31:58;5.90;99.90
13572;DHT22;6857;53.484;10.216;2022-11-13T03:34:24;5.90;99.90
13572;DHT22;6857;53.484;10.216;2022-11-13T03:36:50;6.00;99.90
13572;DHT22;6857;53.484;10.216;2022-11-13T03:39:15;5.90;99.90
13572;DHT22;6857;53.484;10.216;2022-11-13T03:41:41;5.90;99.90
13572;DHT22;6857;53.484;10.216;2022-11-13T03:44:06;5.90;99.90
13572;DHT22;6857;53.484;10.216;2022-11-13T03:46:32;5.90;99.90
13572;DHT22;6857;53.484;10.216;2022-11-13T03:48:58;5.90;99.90
13572;DHT22;6857;53.484;10.216;2022-11-13T03:51:23;5.90;99.90
13572;DHT22;6857;53.484;10.216;2022-11-13T03:53:49;5.90;99.90
13572;DHT22;6857;53.484;10.216;2022-11-13T03:56:15;6.00;99.90
13572;DHT22;6857;53.484;10.216;2022-11-13T03:58:40;6.00;99.90
13572;DHT22;6857;53.484;10.216;2022-11-13T04:01:06;6.00;99.90
13572;DHT22;6857;53.484;10.216;2022-11-13T04:03:31;6.00;99.90
13572;DHT22;6857;53.484;10.216;2022-11-13T04:05:57;6.10;99.90
13572;DHT22;6857;53.484;10.216;2022-11-13T04:08:23;6.00;99.90
13572;DHT22;6857;53.484;10.216;2022-11-13T04:10:48;6.10;99.90
13572;DHT22;6857;53.484;10.216;2022-11-13T04:13:14;5.80;99.90
13572;DHT22;6857;53.484;10.216;2022-11-13T04:15:40;6.10;99.90
13572;DHT22;6857;53.484;10.216;2022-11-13T04:18:05;6.00;99.90
13572;DHT22;6857;53.484;10.216;2022-11-13T04:20:31;6.00;99.90
13572;DHT22;6857;53.484;10.216;2022-11-13T04:22:57;6.00;99.90
13572;DHT22;6857;53.484;10.216;2022-11-13T04:25:23;6.00;99.90
13572;DHT22;6857;53.484;10.216;2022-11-13T04:27:50;6.00;99.90
13572;DHT22;6857;53.484;10.216;2022-11-13T04:30:16;5.90;99.90
13572;DHT22;6857;53.484;10.216;2022-11-13T04:32:42;5.90;99.90
13572;DHT22;6857;53.484;10.216;2022-11-13T04:35:08;5.80;99.90
13572;DHT22;6857;53.484;10.216;2022-11-13T04:37:34;5.80;99.90
13572;DHT22;6857;53.484;10.216;2022-11-13T04:39:59;5.60;99.90
13572;DHT22;6857;53.484;10.216;2022-11-13T04:42:25;5.50;99.90
13572;DHT22;6857;53.484;10.216;2022-11-13T04:45:09;5.50;99.90
13572;DHT22;6857;53.484;10.216;2022-11-13T04:47:34;5.50;99.90
13572;DHT22;6857;53.484;10.216;2022-11-13T04:50:01;5.50;99.90
13572;DHT22;6857;53.484;10.216;2022-11-13T04:52:26;5.50;99.90
13572;DHT22;6857;53.484;10.216;2022-11-13T04:54:53;5.60;99.90
13572;DHT22;6857;53.484;10.216;2022-11-13T04:57:19;5.70;99.90
13572;DHT22;6857;53.484;10.216;2022-11-13T04:59:44;5.80;99.90
13572;DHT22;6857;53.484;10.216;2022-11-13T05:02:10;5.80;99.90
13572;DHT22;6857;53.484;10.216;2022-11-13T05:04:36;5.80;99.90
13572;DHT22;6857;53.484;10.216;2022-11-13T05:07:01;5.80;99.90
13572;DHT22;6857;53.484;10.216;2022-11-13T05:09:27;5.60;99.90
13572;DHT22;6857;53.484;10.216;2022-11-13T05:11:53;5.90;99.90
13572;DHT22;6857;53.484;10.216;2022-11-13T05:14:18;5.90;99.90
13572;DHT22;6857;53.484;10.216;2022-11-13T05:16:44;5.90;99.90
13572;DHT22;6857;53.484;10.216;2022-11-13T05:19:09;6.00;99.90
13572;DHT22;6857;53.484;10.216;2022-11-13T05:21:36;6.00;99.90
13572;DHT22;6857;53.484;10.216;2022-11-13T05:24:03;6.00;99.90
13572;DHT22;6857;53.484;10.216;2022-11-13T05:26:29;5.90;99.90
13572;DHT22;6857;53.484;10.216;2022-11-13T05:28:58;6.00;99.90
13572;DHT22;6857;53.484;10.216;2022-11-13T05:31:25;5.90;99.90
13572;DHT22;6857;53.484;10.216;2022-11-13T05:33:51;5.80;99.90
13572;DHT22;6857;53.484;10.216;2022-11-13T05:36:17;5.80;99.90
13572;DHT22;6857;53.484;10.216;2022-11-13T05:38:47;5.70;99.90
13572;DHT22;6857;53.484;10.216;2022-11-13T05:41:20;5.60;99.90
13572;DHT22;6857;53.484;10.216;2022-11-13T05:43:47;5.70;99.90
13572;DHT22;6857;53.484;10.216;2022-11-13T05:46:20;5.60;99.90
13572;DHT22;6857;53.484;10.216;2022-11-13T05:48:50;5.50;99.90
13572;DHT22;6857;53.484;10.216;2022-11-13T05:51:19;5.40;99.90
13572;DHT22;6857;53.484;10.216;2022-11-13T05:53:45;5.60;99.90
13572;DHT22;6857;53.484;10.216;2022-11-13T05:56:13;5.40;99.90
13572;DHT22;6857;53.484;10.216;2022-11-13T05:58:40;5.40;99.90
13572;DHT22;6857;53.484;10.216;2022-11-13T06:03:42;5.30;99.90
13572;DHT22;6857;53.484;10.216;2022-11-13T06:06:10;5.20;99.90
13572;DHT22;6857;53.484;10.216;2022-11-13T06:08:36;5.20;99.90
13572;DHT22;6857;53.484;10.216;2022-11-13T06:11:04;5.20;99.90
13572;DHT22;6857;53.484;10.216;2022-11-13T06:13:30;5.20;99.90
13572;DHT22;6857;53.484;10.216;2022-11-13T06:16:06;5.10;99.90
13572;DHT22;6857;53.484;10.216;2022-11-13T06:18:33;5.10;99.90
13572;DHT22;6857;53.484;10.216;2022-11-13T06:21:03;5.20;99.90
13572;DHT22;6857;53.484;10.216;2022-11-13T06:23:31;5.30;99.90
13572;DHT22;6857;53.484;10.216;2022-11-13T06:26:06;5.20;99.90
13572;DHT22;6857;53.484;10.216;2022-11-13T06:28:32;5.30;99.90
13572;DHT22;6857;53.484;10.216;2022-11-13T06:31:08;5.30;99.90
13572;DHT22;6857;53.484;10.216;2022-11-13T06:33:34;5.30;99.90
13572;DHT22;6857;53.484;10.216;2022-11-13T06:36:02;5.20;99.90
13572;DHT22;6857;53.484;10.216;2022-11-13T06:38:33;5.30;99.90
13572;DHT22;6857;53.484;10.216;2022-11-13T06:40:59;5.30;99.90
13572;DHT22;6857;53.484;10.216;2022-11-13T06:43:25;5.30;99.90
13572;DHT22;6857;53.484;10.216;2022-11-13T06:45:52;5.30;99.90
13572;DHT22;6857;53.484;10.216;2022-11-13T06:48:17;5.40;99.90
13572;DHT22;6857;53.484;10.216;2022-11-13T06:50:43;5.40;99.90
13572;DHT22;6857;53.484;10.216;2022-11-13T06:53:08;5.50;99.90
13572;DHT22;6857;53.484;10.216;2022-11-13T06:55:44;5.60;99.90
13572;DHT22;6857;53.484;10.216;2022-11-13T06:58:10;5.50;99.90
13572;DHT22;6857;53.484;10.216;2022-11-13T07:00:36;5.60;99.90
13572;DHT22;6857;53.484;10.216;2022-11-13T07:03:01;5.60;99.90
13572;DHT22;6857;53.484;10.216;2022-11-13T07:05:27;5.60;99.90
13572;DHT22;6857;53.484;10.216;2022-11-13T07:07:53;5.70;99.90
13572;DHT22;6857;53.484;10.216;2022-11-13T07:10:18;5.60;99.90
13572;DHT22;6857;53.484;10.216;2022-11-13T07:12:44;5.80;99.90
13572;DHT22;6857;53.484;10.216;2022-11-13T07:15:09;5.80;99.90
13572;DHT22;6857;53.484;10.216;2022-11-13T07:17:35;5.90;99.90
13572;DHT22;6857;53.484;10.216;2022-11-13T07:20:01;5.90;99.90
13572;DHT22;6857;53.484;10.216;2022-11-13T07:22:28;5.90;99.90
13572;DHT22;6857;53.484;10.216;2022-11-13T07:24:55;5.90;99.90
13572;DHT22;6857;53.484;10.216;2022-11-13T07:27:21;5.90;99.90
13572;DHT22;6857;53.484;10.216;2022-11-13T07:29:46;6.00;99.90
13572;DHT22;6857;53.484;10.216;2022-11-13T07:32:12;5.90;99.90
13572;DHT22;6857;53.484;10.216;2022-11-13T07:34:37;5.90;99.90
13572;DHT22;6857;53.484;10.216;2022-11-13T07:37:03;5.90;99.90
13572;DHT22;6857;53.484;10.216;2022-11-13T07:39:31;5.80;99.90
13572;DHT22;6857;53.484;10.216;2022-11-13T07:41:56;5.80;99.90
13572;DHT22;6857;53.484;10.216;2022-11-13T07:44:22;5.90;99.90
13572;DHT22;6857;53.484;10.216;2022-11-13T07:46:47;5.90;99.90
13572;DHT22;6857;53.484;10.216;2022-11-13T07:49:13;6.00;99.90
13572;DHT22;6857;53.484;10.216;2022-11-13T07:51:38;6.00;99.90
13572;DHT22;6857;53.484;10.216;2022-11-13T07:54:04;6.00;99.90
13572;DHT22;6857;53.484;10.216;2022-11-13T07:56:30;6.00;99.90
13572;DHT22;6857;53.484;10.216;2022-11-13T07:58:55;6.10;99.90
13572;DHT22;6857;53.484;10.216;2022-11-13T08:01:21;6.20;99.90
13572;DHT22;6857;53.484;10.216;2022-11-13T08:03:46;6.10;99.90
13572;DHT22;6857;53.484;10.216;2022-11-13T08:06:12;6.20;99.90
13572;DHT22;6857;53.484;10.216;2022-11-13T08:08:37;6.30;99.90
13572;DHT22;6857;53.484;10.216;2022-11-13T08:11:05;6.10;99.90
13572;DHT22;6857;53.484;10.216;2022-11-13T08:13:31;6.40;99.90
13572;DHT22;6857;53.484;10.216;2022-11-13T08:16:00;6.40;99.90
13572;DHT22;6857;53.484;10.216;2022-11-13T08:18:30;6.40;99.90
13572;DHT22;6857;53.484;10.216;2022-11-13T08:20:56;6.40;99.90
13572;DHT22;6857;53.484;10.216;2022-11-13T08:23:22;6.50;99.90
13572;DHT22;6857;53.484;10.216;2022-11-13T08:25:47;6.50;99.90
13572;DHT22;6857;53.484;10.216;2022-11-13T08:28:13;6.50;99.90
13572;DHT22;6857;53.484;10.216;2022-11-13T08:30:42;6.60;99.90
13572;DHT22;6857;53.484;10.216;2022-11-13T08:33:08;6.60;99.90
13572;DHT22;6857;53.484;10.216;2022-11-13T08:35:33;6.70;99.90
13572;DHT22;6857;53.484;10.216;2022-11-13T08:38:06;6.70;99.90
13572;DHT22;6857;53.484;10.216;2022-11-13T08:40:33;6.80;99.90
13572;DHT22;6857;53.484;10.216;2022-11-13T08:43:03;6.80;99.90
13572;DHT22;6857;53.484;10.216;2022-11-13T08:45:29;6.80;99.90
13572;DHT22;6857;53.484;10.216;2022-11-13T08:47:59;6.80;99.90
13572;DHT22;6857;53.484;10.216;2022-11-13T08:50:25;6.90;99.90
13572;DHT22;6857;53.484;10.216;2022-11-13T08:52:55;7.00;99.90
13572;DHT22;6857;53.484;10.216;2022-11-13T08:55:21;7.00;99.90
13572;DHT22;6857;53.484;10.216;2022-11-13T08:57:47;7.00;99.90
13572;DHT22;6857;53.484;10.216;2022-11-13T09:00:13;7.10;99.90
13572;DHT22;6857;53.484;10.216;2022-11-13T09:02:39;7.20;99.90
13572;DHT22;6857;53.484;10.216;2022-11-13T09:05:04;7.20;99.90
13572;DHT22;6857;53.484;10.216;2022-11-13T09:07:30;7.40;99.90
13572;DHT22;6857;53.484;10.216;2022-11-13T09:09:56;7.40;99.90
13572;DHT22;6857;53.484;10.216;2022-11-13T09:12:21;7.30;99.90
13572;DHT22;6857;53.484;10.216;2022-11-13T09:14:47;7.40;99.90
13572;DHT22;6857;53.484;10.216;2022-11-13T09:17:12;7.40;99.90
13572;DHT22;6857;53.484;10.216;2022-11-13T09:19:38;7.40;99.90
13572;DHT22;6857;53.484;10.216;2022-11-13T09:22:03;7.30;99.90
13572;DHT22;6857;53.484;10.216;2022-11-13T09:24:29;7.40;99.90
13572;DHT22;6857;53.484;10.216;2022-11-13T09:26:55;7.40;99.90
13572;DHT22;6857;53.484;10.216;2022-11-13T09:29:21;7.40;99.90
13572;DHT22;6857;53.484;10.216;2022-11-13T09:31:48;7.40;99.90
13572;DHT22;6857;53.484;10.216;2022-11-13T09:34:14;7.40;99.90
13572;DHT22;6857;53.484;10.216;2022-11-13T09:36:39;7.40;99.90
13572;DHT22;6857;53.484;10.216;2022-11-13T09:39:05;7.40;99.90
13572;DHT22;6857;53.484;10.216;2022-11-13T09:41:41;7.40;99.90
13572;DHT22;6857;53.484;10.216;2022-11-13T09:44:16;7.40;99.90
13572;DHT22;6857;53.484;10.216;2022-11-13T09:46:54;7.40;99.90
13572;DHT22;6857;53.484;10.216;2022-11-13T09:49:31;7.40;99.90
13572;DHT22;6857;53.484;10.216;2022-11-13T09:52:01;7.50;99.90
13572;DHT22;6857;53.484;10.216;2022-11-13T09:54:27;7.50;99.90
13572;DHT22;6857;53.484;10.216;2022-11-13T09:59:39;7.60;99.90
13572;DHT22;6857;53.484;10.216;2022-11-13T10:13:13;7.40;99.90
13572;DHT22;6857;53.484;10.216;2022-11-13T10:15:42;7.40;99.90
13572;DHT22;6857;53.484;10.216;2022-11-13T10:18:19;7.30;99.90
13572;DHT22;6857;53.484;10.216;2022-11-13T10:20:54;7.30;99.90
13572;DHT22;6857;53.484;10.216;2022-11-13T10:23:31;7.60;99.90
13572;DHT22;6857;53.484;10.216;2022-11-13T10:26:09;7.30;99.90
13572;DHT22;6857;53.484;10.216;2022-11-13T10:28:36;7.40;99.90
13572;DHT22;6857;53.484;10.216;2022-11-13T10:31:04;7.40;99.90
13572;DHT22;6857;53.484;10.216;2022-11-13T10:33:29;7.30;99.90
13572;DHT22;6857;53.484;10.216;2022-11-13T10:36:01;7.40;99.90
13572;DHT22;6857;53.484;10.216;2022-11-13T10:38:43;7.40;99.90
13572;DHT22;6857;53.484;10.216;2022-11-13T10:41:13;7.50;99.90
13572;DHT22;6857;53.484;10.216;2022-11-13T10:46:25;7.60;99.90
13572;DHT22;6857;53.484;10.216;2022-11-13T10:48:51;7.60;99.90
13572;DHT22;6857;53.484;10.216;2022-11-13T10:51:31;7.50;99.90
13572;DHT22;6857;53.484;10.216;2022-11-13T10:53:58;7.50;99.90
13572;DHT22;6857;53.484;10.216;2022-11-13T10:56:33;7.60;99.90
13572;DHT22;6857;53.484;10.216;2022-11-13T10:59:01;7.70;99.90
13572;DHT22;6857;53.484;10.216;2022-11-13T11:01:27;7.70;99.90
13572;DHT22;6857;53.484;10.216;2022-11-13T11:03:53;7.70;99.90
13572;DHT22;6857;53.484;10.216;2022-11-13T11:06:18;7.70;99.90
13572;DHT22;6857;53.484;10.216;2022-11-13T11:08:44;7.80;99.90
13572;DHT22;6857;53.484;10.216;2022-11-13T11:11:17;7.90;99.90
13572;DHT22;6857;53.484;10.216;2022-11-13T11:14:28;7.90;99.90
13572;DHT22;6857;53.484;10.216;2022-11-13T11:16:55;8.00;99.90
13572;DHT22;6857;53.484;10.216;2022-11-13T11:19:25;8.10;99.90
13572;DHT22;6857;53.484;10.216;2022-11-13T11:22:06;8.10;99.90
13572;DHT22;6857;53.484;10.216;2022-11-13T11:24:37;8.10;99.90
13572;DHT22;6857;53.484;10.216;2022-11-13T11:27:11;8.10;99.90
13572;DHT22;6857;53.484;10.216;2022-11-13T11:30:04;8.20;99.90
13572;DHT22;6857;53.484;10.216;2022-11-13T11:35:20;8.20;99.90
13572;DHT22;6857;53.484;10.216;2022-11-13T11:40:35;8.30;99.90
13572;DHT22;6857;53.484;10.216;2022-11-13T11:43:15;8.30;99.90
13572;DHT22;6857;53.484;10.216;2022-11-13T11:45:44;8.40;99.90
13572;DHT22;6857;53.484;10.216;2022-11-13T11:48:13;8.40;99.90
13572;DHT22;6857;53.484;10.216;2022-11-13T11:53:56;8.40;99.90
13572;DHT22;6857;53.484;10.216;2022-11-13T12:09:58;8.50;99.90
13572;DHT22;6857;53.484;10.216;2022-11-13T12:15:48;8.10;99.90
13572;DHT22;6857;53.484;10.216;2022-11-13T12:21:20;8.60;99.90
13572;DHT22;6857;53.484;10.216;2022-11-13T12:29:26;8.70;99.90
13572;DHT22;6857;53.484;10.216;2022-11-13T12:32:06;8.70;99.90
13572;DHT22;6857;53.484;10.216;2022-11-13T12:34:44;8.80;99.90
13572;DHT22;6857;53.484;10.216;2022-11-13T12:37:15;8.80;99.90
13572;DHT22;6857;53.484;10.216;2022-11-13T12:39:47;8.90;99.90
13572;DHT22;6857;53.484;10.216;2022-11-13T12:47:44;8.90;99.90
13572;DHT22;6857;53.484;10.216;2022-11-13T12:50:29;8.90;99.90
13572;DHT22;6857;53.484;10.216;2022-11-13T12:55:29;9.10;99.90
13572;DHT22;6857;53.484;10.216;2022-11-13T12:58:08;9.20;99.90
13572;DHT22;6857;53.484;10.216;2022-11-13T13:00:39;9.20;99.90
13572;DHT22;6857;53.484;10.216;2022-11-13T13:03:25;9.10;99.90
13572;DHT22;6857;53.484;10.216;2022-11-13T13:06:27;9.10;99.90
13572;DHT22;6857;53.484;10.216;2022-11-13T13:15:26;9.10;99.90
13572;DHT22;6857;53.484;10.216;2022-11-13T13:23:30;9.10;99.90
13572;DHT22;6857;53.484;10.216;2022-11-13T13:28:30;9.00;99.90
13572;DHT22;6857;53.484;10.216;2022-11-13T13:36:45;9.10;99.90
13572;DHT22;6857;53.484;10.216;2022-11-13T13:39:31;9.10;99.90
13572;DHT22;6857;53.484;10.216;2022-11-13T13:42:35;9.20;99.90
13572;DHT22;6857;53.484;10.216;2022-11-13T13:45:34;9.20;99.90
13572;DHT22;6857;53.484;10.216;2022-11-13T13:48:12;9.10;99.90
13572;DHT22;6857;53.484;10.216;2022-11-13T13:50:48;9.10;99.90
13572;DHT22;6857;53.484;10.216;2022-11-13T13:53:26;9.20;99.90
13572;DHT22;6857;53.484;10.216;2022-11-13T13:55:54;9.20;99.90
13572;DHT22;6857;53.484;10.216;2022-11-13T13:58:27;9.30;99.90
13572;DHT22;6857;53.484;10.216;2022-11-13T14:01:02;9.30;99.90
13572;DHT22;6857;53.484;10.216;2022-11-13T14:03:28;9.20;99.90
13572;DHT22;6857;53.484;10.216;2022-11-13T14:06:18;9.20;99.90
13572;DHT22;6857;53.484;10.216;2022-11-13T14:08:40;9.20;99.90
13572;DHT22;6857;53.484;10.216;2022-11-13T14:11:22;9.10;99.90
13572;DHT22;6857;53.484;10.216;2022-11-13T14:13:51;9.00;99.90
13572;DHT22;6857;53.484;10.216;2022-11-13T14:16:17;9.10;99.90
13572;DHT22;6857;53.484;10.216;2022-11-13T14:18:42;9.00;99.90
13572;DHT22;6857;53.484;10.216;2022-11-13T14:21:15;9.10;99.90
13572;DHT22;6857;53.484;10.216;2022-11-13T14:23:47;9.00;99.90
13572;DHT22;6857;53.484;10.216;2022-11-13T14:26:14;8.90;99.90
13572;DHT22;6857;53.484;10.216;2022-11-13T14:31:15;9.00;99.90
13572;DHT22;6857;53.484;10.216;2022-11-13T14:33:43;8.90;99.90
13572;DHT22;6857;53.484;10.216;2022-11-13T14:36:10;9.00;99.90
13572;DHT22;6857;53.484;10.216;2022-11-13T14:38:40;9.00;99.90
13572;DHT22;6857;53.484;10.216;2022-11-13T14:41:23;9.00;99.90
13572;DHT22;6857;53.484;10.216;2022-11-13T14:43:51;9.00;99.90
13572;DHT22;6857;53.484;10.216;2022-11-13T14:46:29;9.00;99.90
13572;DHT22;6857;53.484;10.216;2022-11-13T14:48:55;9.00;99.90
13572;DHT22;6857;53.484;10.216;2022-11-13T14:51:24;9.00;99.90
13572;DHT22;6857;53.484;10.216;2022-11-13T14:54:30;9.00;99.90
13572;DHT22;6857;53.484;10.216;2022-11-13T14:57:08;9.00;99.90
13572;DHT22;6857;53.484;10.216;2022-11-13T14:59:34;9.00;99.90
13572;DHT22;6857;53.484;10.216;2022-11-13T15:02:00;9.00;99.90
13572;DHT22;6857;53.484;10.216;2022-11-13T15:04:25;8.90;99.90
13572;DHT22;6857;53.484;10.216;2022-11-13T15:06:54;9.10;99.90
13572;DHT22;6857;53.484;10.216;2022-11-13T15:09:22;9.00;99.90
13572;DHT22;6857;53.484;10.216;2022-11-13T15:11:48;9.00;99.90
13572;DHT22;6857;53.484;10.216;2022-11-13T15:14:16;8.90;99.90
13572;DHT22;6857;53.484;10.216;2022-11-13T15:16:43;8.90;99.90
13572;DHT22;6857;53.484;10.216;2022-11-13T15:19:16;8.90;99.90
13572;DHT22;6857;53.484;10.216;2022-11-13T15:21:44;8.90;99.90
13572;DHT22;6857;53.484;10.216;2022-11-13T15:24:11;8.90;99.90
13572;DHT22;6857;53.484;10.216;2022-11-13T15:26:38;8.90;99.90
13572;DHT22;6857;53.484;10.216;2022-11-13T15:29:04;8.90;99.90
13572;DHT22;6857;53.484;10.216;2022-11-13T15:31:39;8.90;99.90
13572;DHT22;6857;53.484;10.216;2022-11-13T15:34:05;8.90;99.90
13572;DHT22;6857;53.484;10.216;2022-11-13T15:36:33;8.90;99.90
13572;DHT22;6857;53.484;10.216;2022-11-13T15:38:58;8.90;99.90
13572;DHT22;6857;53.484;10.216;2022-11-13T15:41:27;9.00;99.90
13572;DHT22;6857;53.484;10.216;2022-11-13T15:43:54;8.90;99.90
13572;DHT22;6857;53.484;10.216;2022-11-13T15:46:22;8.90;99.90
13572;DHT22;6857;53.484;10.216;2022-11-13T15:48:48;9.00;99.90
13572;DHT22;6857;53.484;10.216;2022-11-13T15:51:37;9.00;99.90
13572;DHT22;6857;53.484;10.216;2022-11-13T15:54:13;9.00;99.90
13572;DHT22;6857;53.484;10.216;2022-11-13T15:56:41;9.00;99.90
13572;DHT22;6857;53.484;10.216;2022-11-13T15:59:12;9.00;99.90
13572;DHT22;6857;53.484;10.216;2022-11-13T16:01:38;9.00;99.90
13572;DHT22;6857;53.484;10.216;2022-11-13T16:04:04;9.30;99.90
13572;DHT22;6857;53.484;10.216;2022-11-13T16:06:31;9.00;99.90
13572;DHT22;6857;53.484;10.216;2022-11-13T16:09:00;9.00;99.90
13572;DHT22;6857;53.484;10.216;2022-11-13T16:11:29;9.00;99.90
13572;DHT22;6857;53.484;10.216;2022-11-13T16:13:54;9.00;99.90
13572;DHT22;6857;53.484;10.216;2022-11-13T16:16:22;9.10;99.90
13572;DHT22;6857;53.484;10.216;2022-11-13T16:18:49;9.10;99.90
13572;DHT22;6857;53.484;10.216;2022-11-13T16:21:17;9.10;99.90
13572;DHT22;6857;53.484;10.216;2022-11-13T16:23:43;9.20;99.90
13572;DHT22;6857;53.484;10.216;2022-11-13T16:26:16;9.10;99.90
13572;DHT22;6857;53.484;10.216;2022-11-13T16:28:42;9.10;99.90
13572;DHT22;6857;53.484;10.216;2022-11-13T16:31:08;9.20;99.90
13572;DHT22;6857;53.484;10.216;2022-11-13T16:33:33;9.10;99.90
13572;DHT22;6857;53.484;10.216;2022-11-13T16:35:59;9.10;99.90
13572;DHT22;6857;53.484;10.216;2022-11-13T16:38:24;9.10;99.90
13572;DHT22;6857;53.484;10.216;2022-11-13T16:40:50;9.20;99.90
13572;DHT22;6857;53.484;10.216;2022-11-13T16:43:15;9.20;99.90
13572;DHT22;6857;53.484;10.216;2022-11-13T16:45:41;9.20;99.90
13572;DHT22;6857;53.484;10.216;2022-11-13T16:48:14;9.10;99.90
13572;DHT22;6857;53.484;10.216;2022-11-13T16:50:40;9.20;99.90
13572;DHT22;6857;53.484;10.216;2022-11-13T16:53:07;9.20;99.90
13572;DHT22;6857;53.484;10.216;2022-11-13T16:55:34;9.30;99.90
13572;DHT22;6857;53.484;10.216;2022-11-13T16:58:02;9.30;99.90
13572;DHT22;6857;53.484;10.216;2022-11-13T17:00:28;9.20;99.90
13572;DHT22;6857;53.484;10.216;2022-11-13T17:02:54;9.20;99.90
13572;DHT22;6857;53.484;10.216;2022-11-13T17:05:21;9.20;99.90
13572;DHT22;6857;53.484;10.216;2022-11-13T17:07:47;9.20;99.90
13572;DHT22;6857;53.484;10.216;2022-11-13T17:10:16;9.20;99.90
13572;DHT22;6857;53.484;10.216;2022-11-13T17:12:42;9.20;99.90
13572;DHT22;6857;53.484;10.216;2022-11-13T17:15:09;9.30;99.90
13572;DHT22;6857;53.484;10.216;2022-11-13T17:17:34;9.40;99.90
13572;DHT22;6857;53.484;10.216;2022-11-13T17:20:00;9.30;99.90